Terminal Aerodrome Forecast
Issued by NWS Jackson, MS

Home | Current Version | Previous Version | Text Only | Print | Product List | Glossary On
Versions: 1 2 3 4 5 6 7 8 9 10 11 12 13 14
000
FTUS44 KJAN 011700
TAFHBG
TAF
KHBG 011733Z 0118/0218 20011G20KT P6SM SHRA SCT025 OVC080
      TEMPO 0120/0124 5SM TSRA OVC015CB
     FM020000 24013G21KT 5SM -SHRA BR SCT006 OVC015
     FM020500 30011G19KT P6SM BKN025 BKN035
     FM020800 31012G18KT P6SM OVC050=

USA.gov is the U.S. government's official web portal to all federal, state and local government web resources and services.